createdAt,value
2023-03-18T00:02:18.714Z,6.80
2023-03-18T00:05:07.650Z,6.70
2023-03-18T00:07:54.770Z,7.00
2023-03-18T00:10:41.425Z,6.60
2023-03-18T00:13:29.391Z,6.70
2023-03-18T00:16:17.189Z,6.80
2023-03-18T00:19:04.646Z,6.60
2023-03-18T00:21:51.861Z,6.70
2023-03-18T00:24:38.488Z,6.50
2023-03-18T00:27:25.325Z,6.20
2023-03-18T00:30:12.961Z,6.40
2023-03-18T00:33:00.323Z,6.30
2023-03-18T00:35:48.185Z,7.50
2023-03-18T00:38:35.697Z,6.20
2023-03-18T00:41:22.296Z,6.30
2023-03-18T00:44:09.448Z,6.10
2023-03-18T00:46:56.020Z,6.10
2023-03-18T00:49:42.837Z,6.00
2023-03-18T00:52:32.023Z,6.20
2023-03-18T00:55:18.737Z,5.90
2023-03-18T00:58:05.436Z,6.40
2023-03-18T01:00:52.744Z,6.00
2023-03-18T01:03:44.110Z,5.80
2023-03-18T01:06:34.091Z,5.90
2023-03-18T01:09:21.099Z,5.70
2023-03-18T01:12:09.766Z,5.80
2023-03-18T01:14:56.801Z,5.80
2023-03-18T01:17:44.396Z,6.20
2023-03-18T01:20:31.322Z,5.90
2023-03-18T01:23:18.517Z,5.80
2023-03-18T01:26:07.731Z,5.70
2023-03-18T01:28:54.260Z,5.70
2023-03-18T01:31:41.161Z,6.30
2023-03-18T01:34:28.950Z,5.50
2023-03-18T01:37:15.235Z,6.00
2023-03-18T01:40:01.962Z,5.90
2023-03-18T01:42:56.731Z,5.50
2023-03-18T01:45:50.054Z,5.70
2023-03-18T01:48:39.973Z,6.00
2023-03-18T01:51:27.452Z,5.70
2023-03-18T01:54:15.591Z,5.70
2023-03-18T01:57:03.815Z,5.30
2023-03-18T01:59:53.287Z,5.50
2023-03-18T02:02:42.523Z,5.50
2023-03-18T02:05:29.826Z,5.90
2023-03-18T02:08:17.447Z,5.30
2023-03-18T02:11:04.742Z,5.20
2023-03-18T02:13:52.790Z,5.20
2023-03-18T02:16:51.658Z,5.60
2023-03-18T02:20:18.770Z,5.20
2023-03-18T02:23:22.748Z,5.60
2023-03-18T02:26:20.976Z,5.00
2023-03-18T02:29:09.043Z,5.00
2023-03-18T02:31:58.684Z,5.40
2023-03-18T02:34:45.713Z,5.50
2023-03-18T02:37:34.287Z,5.30
2023-03-18T02:40:31.455Z,5.10
2023-03-18T02:43:23.665Z,4.70
2023-03-18T02:46:13.856Z,4.70
2023-03-18T02:49:02.659Z,5.20
2023-03-18T02:51:50.494Z,4.50
2023-03-18T02:54:37.498Z,4.30
2023-03-18T02:57:23.886Z,4.90
2023-03-18T03:00:13.603Z,4.40
2023-03-18T03:03:01.852Z,4.80
2023-03-18T03:05:48.790Z,4.70
2023-03-18T03:08:35.649Z,4.90
2023-03-18T03:11:23.955Z,4.70
2023-03-18T03:14:11.812Z,4.50
2023-03-18T03:16:58.939Z,4.30
2023-03-18T03:19:46.204Z,4.50
2023-03-18T03:22:34.379Z,4.40
2023-03-18T03:25:21.031Z,4.70
2023-03-18T03:28:08.777Z,4.10
2023-03-18T03:30:55.969Z,4.30
2023-03-18T03:33:44.085Z,4.30
2023-03-18T03:36:31.066Z,4.70
2023-03-18T03:39:17.651Z,4.50
2023-03-18T03:42:04.020Z,4.70
2023-03-18T03:44:51.062Z,4.40
2023-03-18T03:47:37.660Z,4.80
2023-03-18T03:50:24.283Z,4.50
2023-03-18T03:53:11.141Z,4.50
2023-03-18T03:55:59.247Z,4.80
2023-03-18T03:58:47.038Z,4.40
2023-03-18T04:01:34.848Z,4.40
2023-03-18T04:04:21.551Z,4.30
2023-03-18T04:07:08.347Z,4.20
2023-03-18T04:09:56.097Z,4.30
2023-03-18T04:12:45.967Z,4.40
2023-03-18T04:15:32.789Z,4.00
2023-03-18T04:18:19.870Z,4.10
2023-03-18T04:21:08.171Z,3.80
2023-03-18T04:23:55.318Z,3.60
2023-03-18T04:26:42.149Z,3.80
2023-03-18T04:29:29.194Z,3.80
2023-03-18T04:32:16.223Z,3.80
2023-03-18T04:35:03.485Z,4.10
2023-03-18T04:37:50.568Z,4.00
2023-03-18T04:40:37.015Z,3.80
2023-03-18T04:43:23.360Z,3.90
2023-03-18T04:46:11.132Z,4.20
2023-03-18T04:48:58.620Z,4.20
2023-03-18T04:51:45.794Z,3.60
2023-03-18T04:54:32.413Z,4.00
2023-03-18T04:57:19.621Z,3.90
2023-03-18T05:00:10.416Z,4.20
2023-03-18T05:02:58.259Z,3.40
2023-03-18T05:05:45.161Z,4.20
2023-03-18T05:08:31.973Z,3.90
2023-03-18T05:11:19.552Z,4.00
2023-03-18T05:14:06.337Z,3.80
2023-03-18T05:16:53.838Z,3.60
2023-03-18T05:19:41.069Z,4.00
2023-03-18T05:22:27.573Z,4.00
2023-03-18T05:25:13.932Z,4.20
2023-03-18T05:28:01.734Z,4.10
2023-03-18T05:30:48.546Z,4.00
2023-03-18T05:33:35.378Z,4.30
2023-03-18T05:36:22.366Z,4.70
2023-03-18T05:39:08.915Z,4.10
2023-03-18T05:41:54.964Z,4.80
2023-03-18T05:44:42.329Z,4.10
2023-03-18T05:47:28.763Z,4.30
2023-03-18T05:50:17.252Z,3.90
2023-03-18T05:53:05.608Z,4.20
2023-03-18T05:55:52.087Z,7.00
2023-03-18T05:58:38.988Z,4.30
2023-03-18T06:01:26.088Z,4.00
2023-03-18T06:04:13.354Z,4.00
2023-03-18T06:07:01.563Z,4.60
2023-03-18T06:09:48.920Z,4.60
2023-03-18T06:12:36.168Z,4.30
2023-03-18T06:15:24.584Z,4.20
2023-03-18T06:18:11.441Z,4.30
2023-03-18T06:20:58.585Z,4.50
2023-03-18T06:23:45.580Z,4.10
2023-03-18T06:26:32.919Z,4.10
2023-03-18T06:29:20.497Z,4.10
2023-03-18T06:32:08.370Z,4.90
2023-03-18T06:34:55.983Z,4.30
2023-03-18T06:37:43.475Z,4.40
2023-03-18T06:40:31.066Z,4.30
2023-03-18T06:43:18.940Z,4.00
2023-03-18T06:46:06.222Z,4.50
2023-03-18T06:48:54.771Z,4.00
2023-03-18T06:51:44.589Z,4.00
2023-03-18T06:54:31.468Z,4.20
2023-03-18T06:57:18.938Z,4.30
2023-03-18T07:00:06.892Z,4.10
2023-03-18T07:02:54.034Z,3.80
2023-03-18T07:05:42.346Z,4.20
2023-03-18T07:08:29.408Z,3.90
2023-03-18T07:11:17.007Z,4.10
2023-03-18T07:14:04.450Z,4.10
2023-03-18T07:16:52.243Z,3.80
2023-03-18T07:19:40.173Z,4.10
2023-03-18T07:22:36.547Z,4.00
2023-03-18T07:25:23.629Z,4.20
2023-03-18T07:28:11.880Z,3.80
2023-03-18T07:30:58.790Z,4.10
2023-03-18T07:33:45.071Z,3.80
2023-03-18T07:36:31.971Z,3.90
2023-03-18T07:39:18.536Z,4.00
2023-03-18T07:42:06.738Z,3.90
2023-03-18T07:44:53.085Z,3.90
2023-03-18T07:47:39.788Z,3.80
2023-03-18T07:50:26.489Z,3.90
2023-03-18T07:53:16.566Z,3.60
2023-03-18T07:56:03.486Z,3.50
2023-03-18T07:58:51.097Z,3.80
2023-03-18T08:01:37.628Z,4.10
2023-03-18T08:04:25.358Z,3.90
2023-03-18T08:07:18.707Z,3.50
2023-03-18T08:10:11.596Z,3.30
2023-03-18T08:13:00.627Z,3.80
2023-03-18T08:16:19.652Z,3.50
2023-03-18T08:29:46.929Z,3.50
2023-03-18T08:32:44.800Z,3.10
2023-03-18T08:36:52.393Z,4.00
2023-03-18T08:51:35.196Z,3.30
2023-03-18T08:54:38.716Z,3.20
2023-03-18T09:08:59.489Z,3.20
2023-03-18T09:12:15.715Z,2.70
2023-03-18T09:15:35.187Z,3.10
2023-03-18T09:20:02.964Z,2.50
2023-03-18T09:23:18.385Z,3.50
2023-03-18T09:26:48.601Z,3.30
2023-03-18T09:30:51.175Z,2.90
2023-03-18T09:34:25.785Z,2.70
2023-03-18T09:38:30.322Z,2.70
2023-03-18T09:42:31.536Z,2.90
2023-03-18T09:46:04.260Z,2.80
2023-03-18T09:49:40.875Z,2.80
2023-03-18T09:53:26.997Z,3.00
2023-03-18T09:56:36.272Z,3.10
2023-03-18T10:00:30.102Z,3.20
2023-03-18T10:03:56.529Z,3.40
2023-03-18T10:06:45.795Z,3.40
2023-03-18T10:14:08.899Z,2.90
2023-03-18T10:17:44.833Z,3.60
2023-03-18T10:22:25.621Z,3.20
2023-03-18T10:25:35.685Z,3.10
2023-03-18T10:30:05.583Z,3.40
2023-03-18T10:43:38.255Z,3.10
2023-03-18T10:46:38.767Z,3.10
2023-03-18T10:50:43.819Z,2.80
2023-03-18T10:53:39.700Z,3.50
2023-03-18T10:56:32.746Z,3.30
2023-03-18T11:00:20.652Z,3.30
2023-03-18T11:02:44.994Z,3.40
2023-03-18T11:16:32.141Z,3.40
2023-03-18T11:19:51.713Z,3.20
2023-03-18T11:23:36.189Z,3.20
2023-03-18T11:28:19.672Z,3.20
2023-03-18T11:31:21.305Z,3.10
2023-03-18T11:46:12.137Z,3.20
2023-03-18T12:00:56.082Z,3.10
2023-03-18T12:42:30.268Z,3.20
2023-03-18T12:56:32.079Z,3.20
2023-03-18T13:10:48.382Z,2.70
2023-03-18T13:25:41.455Z,3.00
2023-03-18T13:40:54.798Z,2.80
2023-03-18T13:44:43.662Z,2.70
2023-03-18T13:59:09.271Z,2.80
2023-03-18T14:16:13.832Z,3.30
2023-03-18T14:33:36.362Z,3.70
2023-03-18T14:37:32.195Z,3.30
2023-03-18T14:51:35.435Z,4.90
2023-03-18T15:05:15.309Z,4.20
2023-03-18T15:18:56.578Z,4.20
2023-03-18T15:22:04.647Z,3.80
2023-03-18T15:25:05.521Z,4.30
2023-03-18T15:28:17.974Z,4.30
2023-03-18T15:31:08.426Z,4.50
2023-03-18T15:34:18.944Z,4.50
2023-03-18T15:37:41.961Z,4.70
2023-03-18T15:40:35.463Z,4.50
2023-03-18T15:43:31.499Z,4.50
2023-03-18T15:59:28.669Z,4.00
2023-03-18T16:02:47.567Z,5.00
2023-03-18T16:06:26.400Z,4.40
2023-03-18T16:10:05.342Z,4.50
2023-03-18T16:13:44.098Z,5.00
2023-03-18T16:16:55.305Z,5.30
2023-03-18T16:20:54.377Z,5.10
2023-03-18T16:24:50.739Z,4.90
2023-03-18T16:29:06.240Z,5.80
2023-03-18T16:32:40.757Z,5.90
2023-03-18T16:35:57.072Z,5.40
2023-03-18T16:39:34.317Z,6.20
2023-03-18T16:43:03.243Z,7.60
2023-03-18T16:47:01.598Z,6.10
2023-03-18T16:51:03.133Z,7.10
2023-03-18T16:54:41.917Z,7.50
2023-03-18T16:58:21.138Z,7.50
2023-03-18T17:01:07.888Z,7.80
2023-03-18T17:03:56.449Z,7.40
2023-03-18T17:06:43.869Z,7.40
2023-03-18T17:09:32.264Z,7.50
2023-03-18T17:12:21.694Z,8.30
2023-03-18T17:15:12.842Z,7.60
2023-03-18T17:18:00.037Z,7.90
2023-03-18T17:20:48.954Z,7.60
2023-03-18T17:25:27.013Z,7.60
2023-03-18T17:28:58.701Z,7.40
2023-03-18T17:32:26.184Z,7.50
2023-03-18T17:35:17.698Z,8.20
2023-03-18T17:38:17.573Z,8.60
2023-03-18T17:41:18.822Z,8.20
2023-03-18T17:45:04.250Z,8.90
2023-03-18T18:00:00.899Z,9.30
2023-03-18T18:13:31.096Z,11.20
2023-03-18T18:16:19.587Z,12.60
2023-03-18T18:19:07.707Z,12.70
2023-03-18T18:21:54.934Z,13.30
2023-03-18T18:24:44.146Z,13.00
2023-03-18T18:27:31.001Z,12.50
2023-03-18T18:30:22.586Z,13.10
2023-03-18T18:33:09.404Z,11.80
2023-03-18T18:36:01.653Z,12.60
2023-03-18T18:38:47.994Z,13.20
2023-03-18T18:41:34.447Z,13.70
2023-03-18T18:44:21.807Z,13.50
2023-03-18T18:49:31.350Z,12.90
2023-03-18T18:52:19.447Z,13.70
2023-03-18T18:55:11.651Z,13.10
2023-03-18T18:57:58.599Z,13.60
2023-03-18T19:00:49.917Z,13.30
2023-03-18T19:03:37.042Z,13.00
2023-03-18T19:06:27.382Z,13.80
2023-03-18T19:09:19.916Z,13.30
2023-03-18T19:12:15.710Z,14.30
2023-03-18T19:15:15.348Z,14.50
2023-03-18T19:18:07.480Z,14.60
2023-03-18T19:20:59.572Z,14.60
2023-03-18T19:23:46.836Z,15.40
2023-03-18T19:26:33.322Z,14.60
2023-03-18T19:29:20.534Z,15.40
2023-03-18T19:32:14.808Z,14.50
2023-03-18T19:35:03.464Z,15.00
2023-03-18T19:37:50.445Z,14.90
2023-03-18T19:40:37.271Z,14.50
2023-03-18T19:43:25.068Z,14.60
2023-03-18T19:46:28.338Z,14.60
2023-03-18T19:49:28.029Z,14.00
2023-03-18T19:52:28.178Z,14.40
2023-03-18T19:55:16.594Z,14.50
2023-03-18T19:58:05.939Z,14.10
2023-03-18T20:00:53.949Z,13.80
2023-03-18T20:03:40.744Z,13.90
2023-03-18T20:06:27.654Z,13.60
2023-03-18T20:09:15.069Z,13.20
2023-03-18T20:12:05.775Z,14.00
2023-03-18T20:14:52.878Z,12.80
2023-03-18T20:17:44.766Z,12.50
2023-03-18T20:20:32.792Z,12.80
2023-03-18T20:23:25.628Z,12.50
2023-03-18T20:26:12.500Z,13.40
2023-03-18T20:28:59.600Z,12.90
2023-03-18T20:32:04.875Z,11.10
2023-03-18T20:34:51.505Z,12.50
2023-03-18T20:37:38.823Z,12.70
2023-03-18T20:40:28.497Z,12.60
2023-03-18T20:43:20.048Z,13.00
2023-03-18T20:46:13.337Z,12.70
2023-03-18T20:49:06.029Z,12.60
2023-03-18T20:51:52.763Z,11.90
2023-03-18T20:54:39.643Z,12.40
2023-03-18T20:57:27.801Z,13.00
2023-03-18T21:00:23.141Z,13.00
2023-03-18T21:03:25.829Z,12.40
2023-03-18T21:06:16.835Z,12.70
2023-03-18T21:09:04.950Z,11.80
2023-03-18T21:11:51.422Z,11.90
2023-03-18T21:14:38.097Z,12.00
2023-03-18T21:17:28.467Z,11.50
2023-03-18T21:20:27.633Z,11.60
2023-03-18T21:23:36.924Z,11.80
2023-03-18T21:26:35.087Z,12.00
2023-03-18T21:29:22.048Z,12.10
2023-03-18T21:32:26.573Z,11.80
2023-03-18T21:35:25.781Z,12.40
2023-03-18T21:38:12.203Z,12.50
2023-03-18T21:41:00.807Z,12.80
2023-03-18T21:43:50.858Z,12.30
2023-03-18T21:46:37.445Z,12.80
2023-03-18T21:49:24.052Z,12.70
2023-03-18T21:52:18.661Z,12.50
2023-03-18T21:55:06.836Z,12.40
2023-03-18T21:57:53.299Z,13.50
2023-03-18T22:00:40.029Z,12.90
2023-03-18T22:03:29.436Z,13.80
2023-03-18T22:06:16.993Z,13.40
2023-03-18T22:09:03.882Z,13.30
2023-03-18T22:11:50.730Z,12.90
2023-03-18T22:14:37.490Z,12.50
2023-03-18T22:17:27.889Z,13.40
2023-03-18T22:20:15.035Z,12.70
2023-03-18T22:23:10.491Z,12.60
2023-03-18T22:25:58.170Z,12.30
2023-03-18T22:28:45.655Z,13.20
2023-03-18T22:31:32.412Z,13.90
2023-03-18T22:34:23.710Z,13.10
2023-03-18T22:37:19.825Z,13.50
2023-03-18T22:40:15.455Z,14.00
2023-03-18T22:43:01.956Z,13.80
2023-03-18T22:45:48.431Z,13.20
2023-03-18T22:48:35.652Z,13.80
2023-03-18T22:51:26.562Z,13.50
2023-03-18T22:54:19.089Z,13.90
2023-03-18T22:57:07.240Z,13.40
2023-03-18T22:59:56.185Z,13.80
2023-03-18T23:02:42.772Z,14.10
2023-03-18T23:05:29.639Z,14.20
2023-03-18T23:08:17.247Z,13.70
2023-03-18T23:11:04.305Z,14.50
2023-03-18T23:13:52.198Z,13.90
2023-03-18T23:16:38.970Z,14.20
2023-03-18T23:19:25.946Z,14.60
2023-03-18T23:22:16.016Z,14.20
2023-03-18T23:25:03.163Z,15.50
2023-03-18T23:27:49.842Z,15.20
2023-03-18T23:30:40.686Z,15.50
2023-03-18T23:33:27.318Z,15.70
2023-03-18T23:36:14.143Z,16.50
2023-03-18T23:39:01.324Z,16.30
2023-03-18T23:41:48.061Z,16.50
2023-03-18T23:44:34.598Z,16.10
2023-03-18T23:47:21.717Z,16.90
2023-03-18T23:50:10.794Z,17.20
2023-03-18T23:52:57.470Z,17.30
2023-03-18T23:55:44.434Z,17.40
2023-03-18T23:58:33.496Z,16.60
